Houlton, ME

8:05 PM EDT on October 22, 2014 (GMT -0400)
Houlton International | Change Station
CLOSE
Current Station
Airport
Location: Houlton,
Elevation: 492 ft
Nearby Weather Stations

Elev 492 ft 46.12 °N, 67.79 °W | Updated 12 minutes ago

Light Rain
Light Rain Mist
43 °F
Feels Like 37 °F
N
12
Wind Variable Wind from NE

Today
High -- | Low -- °F
--% Chance of Precip.
Yesterday
High -- | Low -- °F
Precip. -- in
6:57 AM 5:32 PM
Waning Crescent, 1% visible
Pressure 30.29 in
Visibility 6.0 miles
Clouds Scattered Clouds 1800 ft
Mostly Cloudy 3600 ft
Overcast 7000 ft
Windchill 37 °F
Dew Point 40 °F
Humidity 89%
Rainfall 0.00 in
Snow Depth Not available.
UV 0 out of 12
Pollen .10 out of 12
Ozone Good
PM2.5 Good
Flu Activity Sporadic
METAR KHUL 222353Z AUTO 04010KT 6SM -RA BR SCT018 BKN036 OVC070 06/04 A3027 RMK AO2 SLP255 P0000 60000 T00610044 10117 20061 58012

More Conditions Fewer Conditions

Pressure 30.29 in
Visibility 6.0 miles
Clouds Scattered Clouds 1800 ft
Mostly Cloudy 3600 ft
Overcast 7000 ft
Windchill 37 °F
Dew Point 40 °F
Humidity 89%
Rainfall 0.00 in
Snow Depth Not available.
UV 0 out of 12
Pollen .10 out of 12
Ozone Good
PM2.5 Good
Flu Activity Sporadic
METAR KHUL 222353Z AUTO 04010KT 6SM -RA BR SCT018 BKN036 OVC070 06/04 A3027 RMK AO2 SLP255 P0000 60000 T00610044 10117 20061 58012

More Conditions Fewer Conditions

10-Day Weather Forecast

Almanac

Astronomy

Oct. 22, 2014 Rise Set
Actual Time 6:57 AM EDT 5:32 PM EDT
Civil Twilight 6:27 AM EDT 6:03 PM EDT
Nautical Twilight 5:52 AM EDT 6:38 PM EDT
Astronomical Twilight 5:17 AM EDT 7:12 PM EDT
Moon 5:31 AM EDT (10/22) 5:00 PM EDT (10/22)
Length of Visible Light 11h 36m
Length of Day
10h 35m
Tomorrow will be 3m 4s shorter.
Waning Crescent, 1% of the Moon is Illuminated
Today
Waning Crescent
Oct 23
New
Oct 30
First Quarter
Nov 6
Full
Nov 14
Last Quarter

Today's Extremes

State Highs State Lows

Community

WunderPhotos

Upload Photos

1,764,082 photos uploaded!

WunderBlogs® & News

Nearby

Air Quality

  Air Quality AQ Index Pollutant
Yesterday Good
PM2.5
Yesterday Good
OZONE
Current Good
OZONE
Current Good
PM2.5
Wednesday Good
OZONE
Wednesday Good
PM2.5
Thursday Good
OZONE
Thursday Good
PM2.5
Friday Good
OZONE
Friday Good
PM2.5
Saturday Good
OZONE
Saturday Good
PM2.5

Snow Depth

Station Depth Elevation
No new snow has been reported.

Earthquake Activity

City Distance Mag. Time & Date
No recent earthquake activity has been reported nearby.
Minimum magnitude displayed is 2.5.

Coastal Water Temperatures

Place Temperature
No Stations Reporting

Nearby Weather Stations